sensor_id;sensor_type;location;lat;lon;timestamp;temperature;humidity
1650;DHT22;822;53.670;8.676;2023-03-20T00:00:44;7.50;97.00
1650;DHT22;822;53.670;8.676;2023-03-20T00:03:13;7.50;97.00
1650;DHT22;822;53.670;8.676;2023-03-20T00:05:40;7.50;97.00
1650;DHT22;822;53.670;8.676;2023-03-20T00:08:08;7.50;97.10
1650;DHT22;822;53.670;8.676;2023-03-20T00:10:37;7.50;97.10
1650;DHT22;822;53.670;8.676;2023-03-20T00:13:06;7.50;97.10
1650;DHT22;822;53.670;8.676;2023-03-20T00:15:37;7.50;97.10
1650;DHT22;822;53.670;8.676;2023-03-20T00:18:13;7.50;97.20
1650;DHT22;822;53.670;8.676;2023-03-20T00:20:41;7.50;97.20
1650;DHT22;822;53.670;8.676;2023-03-20T00:23:08;7.50;97.20
1650;DHT22;822;53.670;8.676;2023-03-20T00:25:37;7.50;97.20
1650;DHT22;822;53.670;8.676;2023-03-20T00:28:25;7.50;97.20
1650;DHT22;822;53.670;8.676;2023-03-20T00:30:56;7.50;97.20
1650;DHT22;822;53.670;8.676;2023-03-20T00:33:24;7.50;97.20
1650;DHT22;822;53.670;8.676;2023-03-20T00:35:54;7.50;97.20
1650;DHT22;822;53.670;8.676;2023-03-20T00:38:23;7.50;97.20
1650;DHT22;822;53.670;8.676;2023-03-20T00:40:50;7.50;97.20
1650;DHT22;822;53.670;8.676;2023-03-20T00:43:18;7.50;97.30
1650;DHT22;822;53.670;8.676;2023-03-20T00:45:48;7.50;97.30
1650;DHT22;822;53.670;8.676;2023-03-20T00:48:16;7.50;97.30
1650;DHT22;822;53.670;8.676;2023-03-20T00:50:43;7.50;97.30
1650;DHT22;822;53.670;8.676;2023-03-20T00:53:11;7.40;97.30
1650;DHT22;822;53.670;8.676;2023-03-20T00:55:39;7.40;97.30
1650;DHT22;822;53.670;8.676;2023-03-20T00:58:06;7.40;97.30
1650;DHT22;822;53.670;8.676;2023-03-20T01:00:37;7.40;97.30
1650;DHT22;822;53.670;8.676;2023-03-20T01:03:17;7.40;97.40
1650;DHT22;822;53.670;8.676;2023-03-20T01:05:45;7.40;97.40
1650;DHT22;822;53.670;8.676;2023-03-20T01:08:13;7.40;97.40
1650;DHT22;822;53.670;8.676;2023-03-20T01:10:42;7.40;97.40
1650;DHT22;822;53.670;8.676;2023-03-20T01:13:20;7.40;97.40
1650;DHT22;822;53.670;8.676;2023-03-20T01:15:48;7.40;97.40
1650;DHT22;822;53.670;8.676;2023-03-20T01:18:22;7.40;97.40
1650;DHT22;822;53.670;8.676;2023-03-20T01:20:50;7.40;97.40
1650;DHT22;822;53.670;8.676;2023-03-20T01:23:19;7.40;97.40
1650;DHT22;822;53.670;8.676;2023-03-20T01:25:47;7.40;97.40
1650;DHT22;822;53.670;8.676;2023-03-20T01:28:16;7.40;97.40
1650;DHT22;822;53.670;8.676;2023-03-20T01:30:46;7.40;97.50
1650;DHT22;822;53.670;8.676;2023-03-20T01:33:15;7.30;97.40
1650;DHT22;822;53.670;8.676;2023-03-20T01:35:44;7.30;97.40
1650;DHT22;822;53.670;8.676;2023-03-20T01:38:14;7.30;97.40
1650;DHT22;822;53.670;8.676;2023-03-20T01:40:49;7.30;97.40
1650;DHT22;822;53.670;8.676;2023-03-20T01:43:20;7.30;97.50
1650;DHT22;822;53.670;8.676;2023-03-20T01:45:56;7.30;97.50
1650;DHT22;822;53.670;8.676;2023-03-20T01:48:34;7.30;97.50
1650;DHT22;822;53.670;8.676;2023-03-20T01:51:04;7.30;97.50
1650;DHT22;822;53.670;8.676;2023-03-20T01:53:31;7.30;97.50
1650;DHT22;822;53.670;8.676;2023-03-20T01:56:01;7.20;97.50
1650;DHT22;822;53.670;8.676;2023-03-20T01:58:32;7.20;97.50
1650;DHT22;822;53.670;8.676;2023-03-20T02:01:01;7.20;97.50
1650;DHT22;822;53.670;8.676;2023-03-20T02:03:28;7.20;97.50
1650;DHT22;822;53.670;8.676;2023-03-20T02:05:56;7.20;97.50
1650;DHT22;822;53.670;8.676;2023-03-20T02:08:27;7.20;97.50
1650;DHT22;822;53.670;8.676;2023-03-20T02:10:57;7.20;97.60
1650;DHT22;822;53.670;8.676;2023-03-20T02:13:25;7.20;97.60
1650;DHT22;822;53.670;8.676;2023-03-20T02:16:02;7.10;97.60
1650;DHT22;822;53.670;8.676;2023-03-20T02:18:30;7.20;97.60
1650;DHT22;822;53.670;8.676;2023-03-20T02:21:25;7.20;97.60
1650;DHT22;822;53.670;8.676;2023-03-20T02:24:41;7.10;97.60
1650;DHT22;822;53.670;8.676;2023-03-20T02:27:17;7.10;97.60
1650;DHT22;822;53.670;8.676;2023-03-20T02:33:16;7.10;97.60
1650;DHT22;822;53.670;8.676;2023-03-20T02:39:07;7.10;97.60
1650;DHT22;822;53.670;8.676;2023-03-20T02:41:42;7.10;97.60
1650;DHT22;822;53.670;8.676;2023-03-20T02:44:13;7.10;97.60
1650;DHT22;822;53.670;8.676;2023-03-20T02:46:56;7.10;97.70
1650;DHT22;822;53.670;8.676;2023-03-20T02:49:42;7.10;97.70
1650;DHT22;822;53.670;8.676;2023-03-20T02:52:15;7.10;97.70
1650;DHT22;822;53.670;8.676;2023-03-20T02:54:52;7.10;97.70
1650;DHT22;822;53.670;8.676;2023-03-20T02:57:24;7.10;97.70
1650;DHT22;822;53.670;8.676;2023-03-20T02:59:55;7.10;97.70
1650;DHT22;822;53.670;8.676;2023-03-20T03:02:29;7.10;97.70
1650;DHT22;822;53.670;8.676;2023-03-20T03:05:01;7.10;97.70
1650;DHT22;822;53.670;8.676;2023-03-20T03:07:31;7.10;97.70
1650;DHT22;822;53.670;8.676;2023-03-20T03:10:04;7.10;97.70
1650;DHT22;822;53.670;8.676;2023-03-20T03:12:36;7.10;97.70
1650;DHT22;822;53.670;8.676;2023-03-20T03:15:09;7.10;97.70
1650;DHT22;822;53.670;8.676;2023-03-20T03:17:42;7.10;97.70
1650;DHT22;822;53.670;8.676;2023-03-20T03:20:18;7.00;97.80
1650;DHT22;822;53.670;8.676;2023-03-20T03:22:47;7.10;97.80
1650;DHT22;822;53.670;8.676;2023-03-20T03:25:16;7.10;97.80
1650;DHT22;822;53.670;8.676;2023-03-20T03:27:46;7.00;97.80
1650;DHT22;822;53.670;8.676;2023-03-20T03:30:17;7.10;97.80
1650;DHT22;822;53.670;8.676;2023-03-20T03:32:49;7.10;97.80
1650;DHT22;822;53.670;8.676;2023-03-20T03:35:19;7.10;97.80
1650;DHT22;822;53.670;8.676;2023-03-20T03:37:55;7.10;97.90
1650;DHT22;822;53.670;8.676;2023-03-20T03:40:31;7.10;97.80
1650;DHT22;822;53.670;8.676;2023-03-20T03:43:02;7.10;97.90
1650;DHT22;822;53.670;8.676;2023-03-20T03:45:35;7.10;97.90
1650;DHT22;822;53.670;8.676;2023-03-20T03:48:06;7.00;97.80
1650;DHT22;822;53.670;8.676;2023-03-20T03:50:38;7.10;97.90
1650;DHT22;822;53.670;8.676;2023-03-20T03:53:12;7.10;97.90
1650;DHT22;822;53.670;8.676;2023-03-20T03:55:43;7.10;97.90
1650;DHT22;822;53.670;8.676;2023-03-20T03:58:16;7.10;97.90
1650;DHT22;822;53.670;8.676;2023-03-20T04:00:45;7.10;97.90
1650;DHT22;822;53.670;8.676;2023-03-20T04:03:15;7.10;97.90
1650;DHT22;822;53.670;8.676;2023-03-20T04:05:45;7.10;97.90
1650;DHT22;822;53.670;8.676;2023-03-20T04:08:13;7.10;97.90
1650;DHT22;822;53.670;8.676;2023-03-20T04:10:43;7.10;97.90
1650;DHT22;822;53.670;8.676;2023-03-20T04:13:10;7.10;97.90
1650;DHT22;822;53.670;8.676;2023-03-20T04:15:37;7.10;97.90
1650;DHT22;822;53.670;8.676;2023-03-20T04:18:04;7.10;97.90
1650;DHT22;822;53.670;8.676;2023-03-20T04:20:32;7.10;97.90
1650;DHT22;822;53.670;8.676;2023-03-20T04:22:59;7.10;97.90
1650;DHT22;822;53.670;8.676;2023-03-20T04:25:27;7.10;97.90
1650;DHT22;822;53.670;8.676;2023-03-20T04:27:55;7.10;97.90
1650;DHT22;822;53.670;8.676;2023-03-20T04:30:22;7.10;97.90
1650;DHT22;822;53.670;8.676;2023-03-20T04:32:50;7.10;97.90
1650;DHT22;822;53.670;8.676;2023-03-20T04:35:17;7.10;97.90
1650;DHT22;822;53.670;8.676;2023-03-20T04:37:44;7.10;97.90
1650;DHT22;822;53.670;8.676;2023-03-20T04:40:12;7.10;97.90
1650;DHT22;822;53.670;8.676;2023-03-20T04:42:39;7.10;97.90
1650;DHT22;822;53.670;8.676;2023-03-20T04:45:09;7.10;97.90
1650;DHT22;822;53.670;8.676;2023-03-20T04:47:36;7.10;97.90
1650;DHT22;822;53.670;8.676;2023-03-20T04:50:04;7.10;97.90
1650;DHT22;822;53.670;8.676;2023-03-20T04:52:31;7.20;98.00
1650;DHT22;822;53.670;8.676;2023-03-20T04:54:58;7.20;98.00
1650;DHT22;822;53.670;8.676;2023-03-20T04:57:25;7.20;98.00
1650;DHT22;822;53.670;8.676;2023-03-20T04:59:53;7.20;98.00
1650;DHT22;822;53.670;8.676;2023-03-20T05:02:21;7.20;98.00
1650;DHT22;822;53.670;8.676;2023-03-20T05:04:48;7.20;98.00
1650;DHT22;822;53.670;8.676;2023-03-20T05:07:16;7.20;98.00
1650;DHT22;822;53.670;8.676;2023-03-20T05:09:43;7.20;98.00
1650;DHT22;822;53.670;8.676;2023-03-20T05:12:10;7.20;98.00
1650;DHT22;822;53.670;8.676;2023-03-20T05:14:37;7.20;98.00
1650;DHT22;822;53.670;8.676;2023-03-20T05:17:04;7.20;98.00
1650;DHT22;822;53.670;8.676;2023-03-20T05:19:33;7.20;97.90
1650;DHT22;822;53.670;8.676;2023-03-20T05:22:00;7.20;98.00
1650;DHT22;822;53.670;8.676;2023-03-20T05:24:27;7.20;97.90
1650;DHT22;822;53.670;8.676;2023-03-20T05:26:54;7.20;97.90
1650;DHT22;822;53.670;8.676;2023-03-20T05:29:21;7.20;97.90
1650;DHT22;822;53.670;8.676;2023-03-20T05:31:49;7.20;97.90
1650;DHT22;822;53.670;8.676;2023-03-20T05:34:16;7.20;97.90
1650;DHT22;822;53.670;8.676;2023-03-20T05:36:44;7.20;97.90
1650;DHT22;822;53.670;8.676;2023-03-20T05:39:11;7.20;98.00
1650;DHT22;822;53.670;8.676;2023-03-20T05:41:38;7.20;97.90
1650;DHT22;822;53.670;8.676;2023-03-20T05:44:06;7.30;98.00
1650;DHT22;822;53.670;8.676;2023-03-20T05:46:33;7.20;97.90
1650;DHT22;822;53.670;8.676;2023-03-20T05:49:00;7.30;97.90
1650;DHT22;822;53.670;8.676;2023-03-20T05:51:27;7.30;97.90
1650;DHT22;822;53.670;8.676;2023-03-20T05:53:56;7.30;97.90
1650;DHT22;822;53.670;8.676;2023-03-20T05:56:23;7.30;97.90
1650;DHT22;822;53.670;8.676;2023-03-20T05:58:50;7.30;97.90
1650;DHT22;822;53.670;8.676;2023-03-20T06:01:17;7.30;97.90
1650;DHT22;822;53.670;8.676;2023-03-20T06:03:46;7.30;97.80
1650;DHT22;822;53.670;8.676;2023-03-20T06:06:16;7.30;97.80
1650;DHT22;822;53.670;8.676;2023-03-20T06:08:43;7.30;97.70
1650;DHT22;822;53.670;8.676;2023-03-20T06:11:12;7.30;97.70
1650;DHT22;822;53.670;8.676;2023-03-20T06:13:40;7.40;97.80
1650;DHT22;822;53.670;8.676;2023-03-20T06:16:08;7.40;97.60
1650;DHT22;822;53.670;8.676;2023-03-20T06:18:35;7.30;97.60
1650;DHT22;822;53.670;8.676;2023-03-20T06:21:04;7.40;97.60
1650;DHT22;822;53.670;8.676;2023-03-20T06:23:32;7.40;97.50
1650;DHT22;822;53.670;8.676;2023-03-20T06:25:59;7.40;97.50
1650;DHT22;822;53.670;8.676;2023-03-20T06:28:27;7.40;97.50
1650;DHT22;822;53.670;8.676;2023-03-20T06:30:54;7.40;97.70
1650;DHT22;822;53.670;8.676;2023-03-20T06:33:21;7.40;97.40
1650;DHT22;822;53.670;8.676;2023-03-20T06:35:49;7.40;97.40
1650;DHT22;822;53.670;8.676;2023-03-20T06:38:16;7.40;97.50
1650;DHT22;822;53.670;8.676;2023-03-20T06:40:43;7.40;97.50
1650;DHT22;822;53.670;8.676;2023-03-20T06:43:10;7.40;97.50
1650;DHT22;822;53.670;8.676;2023-03-20T06:45:39;7.40;97.50
1650;DHT22;822;53.670;8.676;2023-03-20T06:48:07;7.40;97.50
1650;DHT22;822;53.670;8.676;2023-03-20T06:50:37;7.40;97.60
1650;DHT22;822;53.670;8.676;2023-03-20T06:53:04;7.40;97.50
1650;DHT22;822;53.670;8.676;2023-03-20T06:55:31;7.50;97.50
1650;DHT22;822;53.670;8.676;2023-03-20T06:57:58;7.50;97.50
1650;DHT22;822;53.670;8.676;2023-03-20T07:00:26;7.50;97.40
1650;DHT22;822;53.670;8.676;2023-03-20T07:02:55;7.50;97.40
1650;DHT22;822;53.670;8.676;2023-03-20T07:05:22;7.60;97.40
1650;DHT22;822;53.670;8.676;2023-03-20T07:07:49;7.60;97.40
1650;DHT22;822;53.670;8.676;2023-03-20T07:10:16;7.60;97.40
1650;DHT22;822;53.670;8.676;2023-03-20T07:12:44;7.60;97.40
1650;DHT22;822;53.670;8.676;2023-03-20T07:15:11;7.60;97.40
1650;DHT22;822;53.670;8.676;2023-03-20T07:17:38;7.60;97.30
1650;DHT22;822;53.670;8.676;2023-03-20T07:20:08;7.60;97.30
1650;DHT22;822;53.670;8.676;2023-03-20T07:22:36;7.70;97.30
1650;DHT22;822;53.670;8.676;2023-03-20T07:25:04;7.70;97.20
1650;DHT22;822;53.670;8.676;2023-03-20T07:27:31;7.70;97.20
1650;DHT22;822;53.670;8.676;2023-03-20T07:29:59;7.70;97.20
1650;DHT22;822;53.670;8.676;2023-03-20T07:32:26;7.70;97.20
1650;DHT22;822;53.670;8.676;2023-03-20T07:34:53;7.70;97.20
1650;DHT22;822;53.670;8.676;2023-03-20T07:37:22;7.70;97.20
1650;DHT22;822;53.670;8.676;2023-03-20T07:39:49;7.80;97.20
1650;DHT22;822;53.670;8.676;2023-03-20T07:42:16;7.80;97.10
1650;DHT22;822;53.670;8.676;2023-03-20T07:44:43;7.80;97.00
1650;DHT22;822;53.670;8.676;2023-03-20T07:47:10;7.90;96.90
1650;DHT22;822;53.670;8.676;2023-03-20T07:49:40;7.90;96.70
1650;DHT22;822;53.670;8.676;2023-03-20T07:52:10;7.90;96.70
1650;DHT22;822;53.670;8.676;2023-03-20T07:54:39;7.90;96.60
1650;DHT22;822;53.670;8.676;2023-03-20T07:57:06;7.90;96.60
1650;DHT22;822;53.670;8.676;2023-03-20T07:59:33;7.90;96.60
1650;DHT22;822;53.670;8.676;2023-03-20T08:02:00;7.90;96.70
1650;DHT22;822;53.670;8.676;2023-03-20T08:04:27;7.90;96.60
1650;DHT22;822;53.670;8.676;2023-03-20T08:06:55;7.90;96.60
1650;DHT22;822;53.670;8.676;2023-03-20T08:09:22;7.90;96.60
1650;DHT22;822;53.670;8.676;2023-03-20T08:11:50;7.90;96.30
1650;DHT22;822;53.670;8.676;2023-03-20T08:14:17;7.90;96.30
1650;DHT22;822;53.670;8.676;2023-03-20T08:16:45;8.00;96.30
1650;DHT22;822;53.670;8.676;2023-03-20T08:19:12;8.00;96.30
1650;DHT22;822;53.670;8.676;2023-03-20T08:21:40;8.00;96.20
1650;DHT22;822;53.670;8.676;2023-03-20T08:24:07;8.00;96.10
1650;DHT22;822;53.670;8.676;2023-03-20T08:26:35;8.00;96.00
1650;DHT22;822;53.670;8.676;2023-03-20T08:29:03;8.00;96.00
1650;DHT22;822;53.670;8.676;2023-03-20T08:31:31;8.00;95.90
1650;DHT22;822;53.670;8.676;2023-03-20T08:33:58;8.10;96.00
1650;DHT22;822;53.670;8.676;2023-03-20T08:36:25;8.00;96.00
1650;DHT22;822;53.670;8.676;2023-03-20T08:38:52;8.10;96.00
1650;DHT22;822;53.670;8.676;2023-03-20T08:41:20;8.10;95.80
1650;DHT22;822;53.670;8.676;2023-03-20T08:43:47;8.10;95.70
1650;DHT22;822;53.670;8.676;2023-03-20T08:46:15;8.10;95.70
1650;DHT22;822;53.670;8.676;2023-03-20T08:48:45;8.10;95.80
1650;DHT22;822;53.670;8.676;2023-03-20T08:51:12;8.10;95.80
1650;DHT22;822;53.670;8.676;2023-03-20T08:53:39;8.20;95.60
1650;DHT22;822;53.670;8.676;2023-03-20T08:56:08;8.20;95.40
1650;DHT22;822;53.670;8.676;2023-03-20T08:58:35;8.20;95.30
1650;DHT22;822;53.670;8.676;2023-03-20T09:01:03;8.20;95.30
1650;DHT22;822;53.670;8.676;2023-03-20T09:03:32;8.20;95.30
1650;DHT22;822;53.670;8.676;2023-03-20T09:05:59;8.20;95.20
1650;DHT22;822;53.670;8.676;2023-03-20T09:08:26;8.20;95.10
1650;DHT22;822;53.670;8.676;2023-03-20T09:10:53;8.30;95.20
1650;DHT22;822;53.670;8.676;2023-03-20T09:13:20;8.30;95.00
1650;DHT22;822;53.670;8.676;2023-03-20T09:15:48;8.30;94.70
1650;DHT22;822;53.670;8.676;2023-03-20T09:18:16;8.30;94.70
1650;DHT22;822;53.670;8.676;2023-03-20T09:20:44;8.30;94.80
1650;DHT22;822;53.670;8.676;2023-03-20T09:23:11;8.40;94.70
1650;DHT22;822;53.670;8.676;2023-03-20T09:25:39;8.40;94.60
1650;DHT22;822;53.670;8.676;2023-03-20T09:28:06;8.40;94.60
1650;DHT22;822;53.670;8.676;2023-03-20T09:30:33;8.40;94.50
1650;DHT22;822;53.670;8.676;2023-03-20T09:33:00;8.40;94.40
1650;DHT22;822;53.670;8.676;2023-03-20T09:35:28;8.40;94.30
1650;DHT22;822;53.670;8.676;2023-03-20T09:37:56;8.40;94.30
1650;DHT22;822;53.670;8.676;2023-03-20T09:40:27;8.40;94.30
1650;DHT22;822;53.670;8.676;2023-03-20T09:43:04;8.50;94.20
1650;DHT22;822;53.670;8.676;2023-03-20T09:45:48;8.50;94.00
1650;DHT22;822;53.670;8.676;2023-03-20T09:48:23;8.50;93.70
1650;DHT22;822;53.670;8.676;2023-03-20T09:50:57;8.50;93.70
1650;DHT22;822;53.670;8.676;2023-03-20T09:53:32;8.50;93.70
1650;DHT22;822;53.670;8.676;2023-03-20T09:56:00;8.50;93.70
1650;DHT22;822;53.670;8.676;2023-03-20T09:58:30;8.50;93.50
1650;DHT22;822;53.670;8.676;2023-03-20T10:01:00;8.50;93.50
1650;DHT22;822;53.670;8.676;2023-03-20T10:03:35;8.60;93.20
1650;DHT22;822;53.670;8.676;2023-03-20T10:06:10;8.70;93.10
1650;DHT22;822;53.670;8.676;2023-03-20T10:08:40;8.70;92.80
1650;DHT22;822;53.670;8.676;2023-03-20T10:11:22;8.70;92.60
1650;DHT22;822;53.670;8.676;2023-03-20T10:14:07;8.70;92.40
1650;DHT22;822;53.670;8.676;2023-03-20T10:16:47;8.80;92.20
1650;DHT22;822;53.670;8.676;2023-03-20T10:19:22;8.80;92.20
1650;DHT22;822;53.670;8.676;2023-03-20T10:22:03;8.80;92.30
1650;DHT22;822;53.670;8.676;2023-03-20T10:24:38;8.80;92.20
1650;DHT22;822;53.670;8.676;2023-03-20T10:27:20;8.80;92.10
1650;DHT22;822;53.670;8.676;2023-03-20T10:29:53;8.80;92.20
1650;DHT22;822;53.670;8.676;2023-03-20T10:32:28;8.80;92.30
1650;DHT22;822;53.670;8.676;2023-03-20T10:35:12;8.90;92.60
1650;DHT22;822;53.670;8.676;2023-03-20T10:37:47;9.00;92.40
1650;DHT22;822;53.670;8.676;2023-03-20T10:40:28;9.00;92.10
1650;DHT22;822;53.670;8.676;2023-03-20T10:42:59;9.10;92.10
1650;DHT22;822;53.670;8.676;2023-03-20T10:45:32;9.30;92.00
1650;DHT22;822;53.670;8.676;2023-03-20T10:48:06;9.40;91.20
1650;DHT22;822;53.670;8.676;2023-03-20T10:50:38;9.50;91.20
1650;DHT22;822;53.670;8.676;2023-03-20T10:53:09;9.50;90.60
1650;DHT22;822;53.670;8.676;2023-03-20T10:55:44;9.60;90.40
1650;DHT22;822;53.670;8.676;2023-03-20T10:58:16;9.70;90.10
1650;DHT22;822;53.670;8.676;2023-03-20T11:00:43;9.70;90.20
1650;DHT22;822;53.670;8.676;2023-03-20T11:03:19;9.80;90.00
1650;DHT22;822;53.670;8.676;2023-03-20T11:05:52;9.90;89.30
1650;DHT22;822;53.670;8.676;2023-03-20T11:08:22;9.90;89.60
1650;DHT22;822;53.670;8.676;2023-03-20T11:10:59;10.00;89.80
1650;DHT22;822;53.670;8.676;2023-03-20T11:13:30;10.10;90.10
1650;DHT22;822;53.670;8.676;2023-03-20T11:16:09;10.20;89.00
1650;DHT22;822;53.670;8.676;2023-03-20T11:18:37;10.30;89.40
1650;DHT22;822;53.670;8.676;2023-03-20T11:21:14;10.30;89.00
1650;DHT22;822;53.670;8.676;2023-03-20T11:23:49;10.40;87.60
1650;DHT22;822;53.670;8.676;2023-03-20T11:26:29;10.30;85.80
1650;DHT22;822;53.670;8.676;2023-03-20T11:28:58;10.30;84.90
1650;DHT22;822;53.670;8.676;2023-03-20T11:31:32;10.30;85.60
1650;DHT22;822;53.670;8.676;2023-03-20T11:34:09;10.30;86.40
1650;DHT22;822;53.670;8.676;2023-03-20T11:36:37;10.20;86.30
1650;DHT22;822;53.670;8.676;2023-03-20T11:39:10;10.20;83.80
1650;DHT22;822;53.670;8.676;2023-03-20T11:41:46;10.20;84.40
1650;DHT22;822;53.670;8.676;2023-03-20T11:44:24;10.10;84.50
1650;DHT22;822;53.670;8.676;2023-03-20T11:46:56;10.10;84.90
1650;DHT22;822;53.670;8.676;2023-03-20T11:49:24;10.10;85.30
1650;DHT22;822;53.670;8.676;2023-03-20T11:51:56;10.00;85.30
1650;DHT22;822;53.670;8.676;2023-03-20T11:54:25;10.10;86.00
1650;DHT22;822;53.670;8.676;2023-03-20T11:56:55;10.00;85.10
1650;DHT22;822;53.670;8.676;2023-03-20T11:59:26;10.00;85.60
1650;DHT22;822;53.670;8.676;2023-03-20T12:01:56;10.10;86.00
1650;DHT22;822;53.670;8.676;2023-03-20T12:04:28;10.10;85.70
1650;DHT22;822;53.670;8.676;2023-03-20T12:06:59;10.10;85.20
1650;DHT22;822;53.670;8.676;2023-03-20T12:09:38;10.10;85.20
1650;DHT22;822;53.670;8.676;2023-03-20T12:12:13;10.00;85.00
1650;DHT22;822;53.670;8.676;2023-03-20T12:14:45;10.10;84.60
1650;DHT22;822;53.670;8.676;2023-03-20T12:20:22;10.10;85.50
1650;DHT22;822;53.670;8.676;2023-03-20T12:22:55;10.10;85.00
1650;DHT22;822;53.670;8.676;2023-03-20T12:25:26;10.20;85.20
1650;DHT22;822;53.670;8.676;2023-03-20T12:28:04;10.20;85.50
1650;DHT22;822;53.670;8.676;2023-03-20T12:30:47;10.20;84.20
1650;DHT22;822;53.670;8.676;2023-03-20T12:33:20;10.30;84.20
1650;DHT22;822;53.670;8.676;2023-03-20T12:35:51;10.30;83.30
1650;DHT22;822;53.670;8.676;2023-03-20T12:38:26;10.20;83.00
1650;DHT22;822;53.670;8.676;2023-03-20T12:40:59;10.20;83.50
1650;DHT22;822;53.670;8.676;2023-03-20T12:43:38;10.30;84.20
1650;DHT22;822;53.670;8.676;2023-03-20T12:46:10;10.40;84.50
1650;DHT22;822;53.670;8.676;2023-03-20T12:48:49;10.40;84.30
1650;DHT22;822;53.670;8.676;2023-03-20T12:51:22;10.50;84.40
1650;DHT22;822;53.670;8.676;2023-03-20T12:53:57;10.50;84.50
1650;DHT22;822;53.670;8.676;2023-03-20T12:56:35;10.60;84.50
1650;DHT22;822;53.670;8.676;2023-03-20T12:59:12;10.60;84.50
1650;DHT22;822;53.670;8.676;2023-03-20T13:01:45;10.60;84.50
1650;DHT22;822;53.670;8.676;2023-03-20T13:04:45;10.60;85.10
1650;DHT22;822;53.670;8.676;2023-03-20T13:07:18;10.60;84.40
1650;DHT22;822;53.670;8.676;2023-03-20T13:10:04;10.60;84.70
1650;DHT22;822;53.670;8.676;2023-03-20T13:12:39;10.60;84.70
1650;DHT22;822;53.670;8.676;2023-03-20T13:15:26;10.60;84.60
1650;DHT22;822;53.670;8.676;2023-03-20T13:18:01;10.60;84.90
1650;DHT22;822;53.670;8.676;2023-03-20T13:20:32;10.60;85.10
1650;DHT22;822;53.670;8.676;2023-03-20T13:23:19;10.70;85.50
1650;DHT22;822;53.670;8.676;2023-03-20T13:25:59;10.70;85.60
1650;DHT22;822;53.670;8.676;2023-03-20T13:28:32;10.70;85.80
1650;DHT22;822;53.670;8.676;2023-03-20T13:31:10;10.70;84.40
1650;DHT22;822;53.670;8.676;2023-03-20T13:33:46;10.70;84.90
1650;DHT22;822;53.670;8.676;2023-03-20T13:36:23;10.80;85.30
1650;DHT22;822;53.670;8.676;2023-03-20T13:38:56;10.80;85.80
1650;DHT22;822;53.670;8.676;2023-03-20T13:41:25;10.80;85.50
1650;DHT22;822;53.670;8.676;2023-03-20T13:43:56;10.80;85.20
1650;DHT22;822;53.670;8.676;2023-03-20T13:46:32;10.80;84.90
1650;DHT22;822;53.670;8.676;2023-03-20T13:49:04;10.70;85.30
1650;DHT22;822;53.670;8.676;2023-03-20T13:51:38;10.70;85.90
1650;DHT22;822;53.670;8.676;2023-03-20T13:54:14;10.60;86.00
1650;DHT22;822;53.670;8.676;2023-03-20T13:56:51;10.60;86.30
1650;DHT22;822;53.670;8.676;2023-03-20T13:59:40;10.50;86.80
1650;DHT22;822;53.670;8.676;2023-03-20T14:02:21;10.50;87.40
1650;DHT22;822;53.670;8.676;2023-03-20T14:04:53;10.50;87.90
1650;DHT22;822;53.670;8.676;2023-03-20T14:07:30;10.50;88.30
1650;DHT22;822;53.670;8.676;2023-03-20T14:10:33;10.50;88.70
1650;DHT22;822;53.670;8.676;2023-03-20T14:13:03;10.40;88.90
1650;DHT22;822;53.670;8.676;2023-03-20T14:15:32;10.40;89.30
1650;DHT22;822;53.670;8.676;2023-03-20T14:18:05;10.40;89.80
1650;DHT22;822;53.670;8.676;2023-03-20T14:20:34;10.40;90.10
1650;DHT22;822;53.670;8.676;2023-03-20T14:23:02;10.40;90.20
1650;DHT22;822;53.670;8.676;2023-03-20T14:25:34;10.30;90.20
1650;DHT22;822;53.670;8.676;2023-03-20T14:28:08;10.30;90.20
1650;DHT22;822;53.670;8.676;2023-03-20T14:30:49;10.20;90.10
1650;DHT22;822;53.670;8.676;2023-03-20T14:33:29;10.20;90.50
1650;DHT22;822;53.670;8.676;2023-03-20T14:36:16;10.10;90.60
1650;DHT22;822;53.670;8.676;2023-03-20T14:38:51;10.00;90.80
1650;DHT22;822;53.670;8.676;2023-03-20T14:41:22;10.00;91.00
1650;DHT22;822;53.670;8.676;2023-03-20T14:43:57;10.00;91.10
1650;DHT22;822;53.670;8.676;2023-03-20T14:46:38;10.00;91.30
1650;DHT22;822;53.670;8.676;2023-03-20T14:49:23;9.90;91.50
1650;DHT22;822;53.670;8.676;2023-03-20T14:51:55;9.90;91.60
1650;DHT22;822;53.670;8.676;2023-03-20T14:54:27;9.80;91.80
1650;DHT22;822;53.670;8.676;2023-03-20T14:57:07;9.80;91.90
1650;DHT22;822;53.670;8.676;2023-03-20T14:59:35;9.80;92.10
1650;DHT22;822;53.670;8.676;2023-03-20T15:02:03;9.70;92.20
1650;DHT22;822;53.670;8.676;2023-03-20T15:04:39;9.70;92.30
1650;DHT22;822;53.670;8.676;2023-03-20T15:07:13;9.60;92.40
1650;DHT22;822;53.670;8.676;2023-03-20T15:09:43;9.60;92.60
1650;DHT22;822;53.670;8.676;2023-03-20T15:12:13;9.60;92.70
1650;DHT22;822;53.670;8.676;2023-03-20T15:14:43;9.60;92.80
1650;DHT22;822;53.670;8.676;2023-03-20T15:17:17;9.50;92.90
1650;DHT22;822;53.670;8.676;2023-03-20T15:19:46;9.50;93.10
1650;DHT22;822;53.670;8.676;2023-03-20T15:22:15;9.50;93.20
1650;DHT22;822;53.670;8.676;2023-03-20T15:24:50;9.40;93.30
1650;DHT22;822;53.670;8.676;2023-03-20T15:27:18;9.40;93.40
1650;DHT22;822;53.670;8.676;2023-03-20T15:29:49;9.40;93.50
1650;DHT22;822;53.670;8.676;2023-03-20T15:32:17;9.40;93.70
1650;DHT22;822;53.670;8.676;2023-03-20T15:34:47;9.40;93.70
1650;DHT22;822;53.670;8.676;2023-03-20T15:37:17;9.40;93.90
1650;DHT22;822;53.670;8.676;2023-03-20T15:39:47;9.40;93.90
1650;DHT22;822;53.670;8.676;2023-03-20T15:42:16;9.40;94.00
1650;DHT22;822;53.670;8.676;2023-03-20T15:44:46;9.40;94.10
1650;DHT22;822;53.670;8.676;2023-03-20T15:47:14;9.30;94.10
1650;DHT22;822;53.670;8.676;2023-03-20T15:49:51;9.30;94.20
1650;DHT22;822;53.670;8.676;2023-03-20T15:52:27;9.30;94.20
1650;DHT22;822;53.670;8.676;2023-03-20T15:54:56;9.30;94.30
1650;DHT22;822;53.670;8.676;2023-03-20T15:57:28;9.20;94.40
1650;DHT22;822;53.670;8.676;2023-03-20T15:59:56;9.20;94.40
1650;DHT22;822;53.670;8.676;2023-03-20T16:02:24;9.20;94.50
1650;DHT22;822;53.670;8.676;2023-03-20T16:04:54;9.10;94.60
1650;DHT22;822;53.670;8.676;2023-03-20T16:07:22;9.10;94.60
1650;DHT22;822;53.670;8.676;2023-03-20T16:09:52;9.10;94.80
1650;DHT22;822;53.670;8.676;2023-03-20T16:12:20;9.10;94.90
1650;DHT22;822;53.670;8.676;2023-03-20T16:14:48;9.00;95.00
1650;DHT22;822;53.670;8.676;2023-03-20T16:17:17;9.00;95.10
1650;DHT22;822;53.670;8.676;2023-03-20T16:19:46;9.00;95.20
1650;DHT22;822;53.670;8.676;2023-03-20T16:22:20;9.00;95.20
1650;DHT22;822;53.670;8.676;2023-03-20T16:24:49;9.00;95.20
1650;DHT22;822;53.670;8.676;2023-03-20T16:27:23;8.90;95.30
1650;DHT22;822;53.670;8.676;2023-03-20T16:29:51;8.90;95.40
1650;DHT22;822;53.670;8.676;2023-03-20T16:32:32;8.90;95.40
1650;DHT22;822;53.670;8.676;2023-03-20T16:35:03;8.90;95.70
1650;DHT22;822;53.670;8.676;2023-03-20T16:37:37;8.90;95.50
1650;DHT22;822;53.670;8.676;2023-03-20T16:40:17;8.90;95.50
1650;DHT22;822;53.670;8.676;2023-03-20T16:42:45;8.90;95.50
1650;DHT22;822;53.670;8.676;2023-03-20T16:45:21;8.80;95.50
1650;DHT22;822;53.670;8.676;2023-03-20T16:47:49;8.80;95.50
1650;DHT22;822;53.670;8.676;2023-03-20T16:50:21;8.80;95.50
1650;DHT22;822;53.670;8.676;2023-03-20T16:52:54;8.80;95.60
1650;DHT22;822;53.670;8.676;2023-03-20T16:55:26;8.80;95.70
1650;DHT22;822;53.670;8.676;2023-03-20T16:57:58;8.80;95.70
1650;DHT22;822;53.670;8.676;2023-03-20T17:00:28;8.70;95.60
1650;DHT22;822;53.670;8.676;2023-03-20T17:03:14;8.70;95.60
1650;DHT22;822;53.670;8.676;2023-03-20T17:05:46;8.70;95.60
1650;DHT22;822;53.670;8.676;2023-03-20T17:08:21;8.70;95.70